Decoded METAR's for Zimbabwe

 
 
Print Page

Back to Weather Page

 
 

Bulawayo - Zimbabwe, FVBU

ADDS - TAFS form results

Aviation Digital Data Service (ADDS)

Output produced by TAFs form (0733 UTC 24 November 2017)
found at http://aviationweather.gov/adds/tafs/
 
METAR text: FVBU 240700Z 10014KT 9999 FEW025 23/15 Q1022 NOSIG
Conditions at: FVBU (BULAWAYO/WOODVAL, ZW) observed 0700 UTC 24 November 2017
Temperature: 23.0°C (73°F)
Dewpoint: 15.0°C (59°F) [RH = 61%]
Pressure (altimeter): 30.18 inches Hg (1022.0 mb)
Winds: from the E (100 degrees) at 16 MPH (14 knots; 7.3 m/s)
Visibility: 6 or more miles (10+ km)
Ceiling: at least 12,000 feet AGL
Clouds: few clouds at 2500 feet AGL
Weather: no significant weather observed at this time

Array
Chiredzi / Buffalo - Zimbabwe, FVCZ

ADDS - TAFS form results

Aviation Digital Data Service (ADDS)

Output produced by TAFs form (0733 UTC 24 November 2017)
found at http://aviationweather.gov/adds/tafs/
 
You entered "FVCZ"

Sorry, either there are no data available for your request or you did not enter any valid ICAO airport abbreviations.

See stations.txt for a list of known METAR and TAF locations. Then go back to the ADDS METARs or TAFs page and try again
 
Please try again and, if problems persist, then send mail to ncep.awc.adds@noaa.gov
Array
Victoria Falls - Zimbabwe, FVFA

ADDS - TAFS form results

Aviation Digital Data Service (ADDS)

Output produced by TAFs form (0733 UTC 24 November 2017)
found at http://aviationweather.gov/adds/tafs/
 
METAR text: FVFA 240600Z 07006KT 040V100 CAVOK 25/16 Q1018 NOSIG
Conditions at: FVFA (VICTORIA FALLS , ZW) observed 0600 UTC 24 November 2017
Temperature: 25.0°C (77°F)
Dewpoint: 16.0°C (61°F) [RH = 57%]
Pressure (altimeter): 30.06 inches Hg (1018.0 mb)
Winds: from the ENE (70 degrees) at 7 MPH (6 knots; 3.1 m/s)
Visibility: 6 or more miles (10+ km)
Ceiling: ceiling and visibility are OK
Clouds: unknown
Weather: no significant weather observed at this time

Array
Harare - Zimbabwe, FVHA

ADDS - TAFS form results

Aviation Digital Data Service (ADDS)

Output produced by TAFs form (0733 UTC 24 November 2017)
found at http://aviationweather.gov/adds/tafs/
 
METAR text: FVHA 240700Z 09009KT 030V130 9999 FEW010 SCT300 22/16 Q1023 NOSIG
Conditions at: FVHA (HARARE/KUTSAGA(M, ZW) observed 0700 UTC 24 November 2017
Temperature: 22.0°C (72°F)
Dewpoint: 16.0°C (61°F) [RH = 69%]
Pressure (altimeter): 30.21 inches Hg (1023.0 mb)
Winds: from the E (90 degrees) at 10 MPH (9 knots; 4.7 m/s)
Visibility: 6 or more miles (10+ km)
Ceiling: at least 12,000 feet AGL
Clouds: few clouds at 1000 feet AGL
scattered clouds at 30000 feet AGL
Weather: no significant weather observed at this time

Array
Kariba - Zimbabwe, FVKB

ADDS - TAFS form results

Aviation Digital Data Service (ADDS)

Output produced by TAFs form (0733 UTC 24 November 2017)
found at http://aviationweather.gov/adds/tafs/
 
METAR text: FVKB 240600Z 00000KT 9999 FEW040 BKN100 28/21 Q1015 NOSIG
Conditions at: FVKB (KARIBA , ZW) observed 0600 UTC 24 November 2017
Temperature: 28.0°C (82°F)
Dewpoint: 21.0°C (70°F) [RH = 66%]
Pressure (altimeter): 29.97 inches Hg (1015.0 mb)
Winds: calm
Visibility: 6 or more miles (10+ km)
Ceiling: 10000 feet AGL
Clouds: few clouds at 4000 feet AGL
broken clouds at 10000 feet AGL
Weather: no significant weather observed at this time

Array
Masvingo - Zimbabwe, FVMV

ADDS - TAFS form results

Aviation Digital Data Service (ADDS)

Output produced by TAFs form (0733 UTC 24 November 2017)
found at http://aviationweather.gov/adds/tafs/
 
METAR text: FVMV 240700Z 15009KT 9999 BKN014 21/17 Q1021 TEMPO -DZ
Conditions at: FVMV (MASVINGO , ZW) observed 0700 UTC 24 November 2017
Temperature: 21.0°C (70°F)
Dewpoint: 17.0°C (63°F) [RH = 78%]
Pressure (altimeter): 30.15 inches Hg (1021.0 mb)
Winds: from the SSE (150 degrees) at 10 MPH (9 knots; 4.7 m/s)
Visibility: 6 or more miles (10+ km)
Ceiling: 1400 feet AGL
Clouds: broken clouds at 1400 feet AGL
Weather: no significant weather observed at this time

Array
Gweru / Thornhill - Zimbabwe, FVTL

ADDS - TAFS form results

Aviation Digital Data Service (ADDS)

Output produced by TAFs form (0733 UTC 24 November 2017)
found at http://aviationweather.gov/adds/tafs/
 
You entered "FVTL"

Sorry, either there are no data available for your request or you did not enter any valid ICAO airport abbreviations.

See stations.txt for a list of known METAR and TAF locations. Then go back to the ADDS METARs or TAFs page and try again
 
Please try again and, if problems persist, then send mail to ncep.awc.adds@noaa.gov
Array
Hwange National Park - Zimbabwe, FVWN

ADDS - TAFS form results

Aviation Digital Data Service (ADDS)

Output produced by TAFs form (0733 UTC 24 November 2017)
found at http://aviationweather.gov/adds/tafs/
 
You entered "FVWN"

Sorry, either there are no data available for your request or you did not enter any valid ICAO airport abbreviations.

See stations.txt for a list of known METAR and TAF locations. Then go back to the ADDS METARs or TAFs page and try again
 
Please try again and, if problems persist, then send mail to ncep.awc.adds@noaa.gov
Array